KSME/SME METAR and TAF weather

Enter ICAO airport designator
Station Type Date Time Source
KSME METAR 2021/03/03 02:35 UTC NOAA

KSME 030235Z AUTO 00000KT 10SM CLR 03/M08 A3014 RMK AO2


Station Type Date Time Source
KSME Decoded METAR 2021/03/03 02:35 UTC NOAA

Somerset, Somerset-Pulaski County - J.T. Wilson Field Airport, KY, United States (KSME) 37-03-15N 084-36-54W
Mar 02, 2021 - 09:35 PM EST / 2021.03.03 0235 UTC
Wind: Calm:0
Visibility: 10 mile(s):0
Sky conditions: clear
Temperature: 37 F (3 C)
Dew Point: 17 F (-8 C)
Relative Humidity: 44%
Pressure (altimeter): 30.14 in. Hg (1020 hPa)
ob: KSME 030235Z AUTO 00000KT 10SM CLR 03/M08 A3014 RMK AO2
cycle: 2

Station Type Date Time Source
KSME TAF 2021/03/02 18:42 UTC NOAA

TAF KSME 021738Z 0218/0318 VRB04KT P6SM SCT250

Example: see airport list